createdAt,value
2019-04-11T00:01:33.934Z,3.60
2019-04-11T00:03:53.517Z,3.60
2019-04-11T00:06:23.527Z,3.50
2019-04-11T00:08:52.909Z,3.60
2019-04-11T00:11:23.900Z,3.50
2019-04-11T00:13:53.622Z,3.50
2019-04-11T00:16:23.459Z,3.40
2019-04-11T00:18:54.484Z,3.40
2019-04-11T00:21:25.072Z,3.40
2019-04-11T00:23:54.565Z,3.40
2019-04-11T00:26:24.461Z,3.40
2019-04-11T00:28:54.234Z,3.40
2019-04-11T00:31:23.697Z,3.30
2019-04-11T00:33:54.184Z,3.30
2019-04-11T00:36:24.490Z,3.20
2019-04-11T00:38:53.799Z,3.10
2019-04-11T00:41:23.932Z,3.00
2019-04-11T00:43:54.631Z,3.00
2019-04-11T00:46:24.573Z,2.90
2019-04-11T00:48:54.466Z,2.80
2019-04-11T00:51:25.893Z,2.80
2019-04-11T00:53:58.338Z,2.80
2019-04-11T00:56:28.393Z,2.80
2019-04-11T00:58:58.961Z,2.80
2019-04-11T01:01:28.277Z,2.80
2019-04-11T01:03:57.576Z,2.80
2019-04-11T01:06:27.908Z,2.70
2019-04-11T01:08:58.433Z,2.70
2019-04-11T01:11:27.912Z,2.70
2019-04-11T01:13:57.458Z,2.70
2019-04-11T01:16:38.802Z,2.70
2019-04-11T01:19:08.772Z,2.30
2019-04-11T01:21:38.165Z,2.00
2019-04-11T01:24:07.473Z,1.70
2019-04-11T01:26:37.273Z,1.40
2019-04-11T01:29:07.169Z,1.20
2019-04-11T01:31:38.412Z,1.00
2019-04-11T01:34:08.596Z,0.90
2019-04-11T01:36:39.431Z,0.80
2019-04-11T01:39:23.322Z,0.70
2019-04-11T01:41:53.678Z,0.60
2019-04-11T01:44:23.055Z,0.50
2019-04-11T01:46:52.353Z,0.50
2019-04-11T01:49:24.041Z,0.40
2019-04-11T01:51:53.957Z,0.50
2019-04-11T01:54:24.309Z,0.60
2019-04-11T01:56:53.749Z,0.70
2019-04-11T01:59:23.603Z,0.70
2019-04-11T02:02:01.227Z,0.80
2019-04-11T02:04:38.529Z,0.80
2019-04-11T02:07:08.204Z,0.70
2019-04-11T02:09:38.481Z,0.70
2019-04-11T02:12:07.822Z,0.60
2019-04-11T02:14:38.233Z,0.60
2019-04-11T02:17:08.599Z,0.60
2019-04-11T02:19:38.457Z,0.50
2019-04-11T02:22:13.665Z,0.50
2019-04-11T02:24:52.263Z,0.50
2019-04-11T02:27:24.779Z,0.50
2019-04-11T02:29:55.147Z,0.40
2019-04-11T02:32:28.702Z,0.40
2019-04-11T02:34:59.329Z,0.40
2019-04-11T02:37:29.377Z,0.40
2019-04-11T02:40:00.156Z,0.40
2019-04-11T02:42:30.747Z,0.30
2019-04-11T02:45:18.102Z,0.40
2019-04-11T02:47:35.225Z,0.40
2019-04-11T02:50:05.813Z,0.40
2019-04-11T02:52:37.638Z,0.40
2019-04-11T02:55:10.127Z,0.40
2019-04-11T02:57:40.644Z,0.30
2019-04-11T03:00:11.169Z,0.30
2019-04-11T03:02:44.206Z,0.30
2019-04-11T03:05:13.697Z,0.30
2019-04-11T03:07:43.341Z,0.20
2019-04-11T03:10:14.177Z,0.10
2019-04-11T03:12:45.981Z,0.10
2019-04-11T03:15:35.954Z,0.10
2019-04-11T03:17:49.474Z,0.10
2019-04-11T03:20:26.523Z,0.10
2019-04-11T03:22:56.929Z,0.00
2019-04-11T03:25:22.514Z,0.00
2019-04-11T03:27:54.039Z,-0.10
2019-04-11T03:30:38.095Z,-0.10
2019-04-11T03:38:24.703Z,0.00
2019-04-11T03:40:48.090Z,0.00
2019-04-11T03:43:16.408Z,0.00
2019-04-11T03:45:52.474Z,0.00
2019-04-11T03:48:23.551Z,0.00
2019-04-11T03:50:39.493Z,0.10
2019-04-11T03:53:11.413Z,0.10
2019-04-11T03:55:45.398Z,0.20
2019-04-11T03:58:15.587Z,0.20
2019-04-11T04:00:49.729Z,0.30
2019-04-11T04:03:20.089Z,0.30
2019-04-11T04:05:50.648Z,0.30
2019-04-11T04:08:20.420Z,0.30
2019-04-11T04:10:52.121Z,0.40
2019-04-11T04:13:23.223Z,0.40
2019-04-11T04:16:12.126Z,0.40
2019-04-11T04:18:40.409Z,0.30
2019-04-11T04:21:13.309Z,0.20
2019-04-11T04:23:45.471Z,0.10
2019-04-11T04:26:16.863Z,0.00
2019-04-11T04:28:47.599Z,0.00
2019-04-11T04:31:18.449Z,-0.10
2019-04-11T04:33:49.385Z,0.00
2019-04-11T04:36:18.823Z,0.00
2019-04-11T04:38:48.755Z,0.00
2019-04-11T04:41:32.518Z,-0.10
2019-04-11T04:43:52.799Z,-0.10
2019-04-11T04:46:39.950Z,-0.20
2019-04-11T04:48:55.985Z,-0.30
2019-04-11T04:51:26.795Z,-0.30
2019-04-11T04:53:57.873Z,-0.20
2019-04-11T04:56:31.804Z,-0.20
2019-04-11T04:59:19.606Z,-0.10
2019-04-11T05:01:50.841Z,-0.10
2019-04-11T05:04:21.238Z,0.00
2019-04-11T05:06:52.281Z,0.10
2019-04-11T05:09:21.550Z,0.10
2019-04-11T05:11:50.931Z,0.20
2019-04-11T05:14:21.008Z,0.20
2019-04-11T05:16:50.531Z,0.30
2019-04-11T05:19:21.969Z,0.30
2019-04-11T05:21:52.027Z,0.40
2019-04-11T05:24:21.461Z,0.50
2019-04-11T05:26:50.761Z,0.50
2019-04-11T05:29:21.604Z,0.50
2019-04-11T05:31:51.132Z,0.60
2019-04-11T05:34:20.620Z,0.70
2019-04-11T05:36:50.996Z,0.70
2019-04-11T05:39:20.300Z,0.80
2019-04-11T05:41:49.946Z,0.80
2019-04-11T05:44:20.935Z,0.90
2019-04-11T05:46:56.258Z,0.90
2019-04-11T05:49:36.657Z,1.00
2019-04-11T05:52:08.141Z,1.10
2019-04-11T05:54:48.881Z,1.10
2019-04-11T05:57:21.279Z,1.10
2019-04-11T05:59:49.926Z,1.20
2019-04-11T06:02:21.397Z,1.30
2019-04-11T06:04:56.218Z,1.30
2019-04-11T06:07:35.007Z,1.40
2019-04-11T06:10:11.205Z,1.60
2019-04-11T06:12:45.522Z,1.70
2019-04-11T06:15:16.673Z,1.80
2019-04-11T06:17:48.206Z,2.00
2019-04-11T06:20:24.722Z,2.00
2019-04-11T06:23:00.626Z,2.00
2019-04-11T06:25:33.285Z,2.20
2019-04-11T06:28:07.333Z,2.40
2019-04-11T06:30:47.272Z,2.60
2019-04-11T06:33:22.706Z,2.80
2019-04-11T06:36:02.629Z,2.90
2019-04-11T06:38:34.380Z,3.10
2019-04-11T06:41:20.489Z,3.50
2019-04-11T06:44:00.610Z,3.70
2019-04-11T06:46:35.423Z,4.00
2019-04-11T06:49:07.043Z,4.30
2019-04-11T06:51:37.986Z,4.60
2019-04-11T06:54:25.248Z,4.80
2019-04-11T06:56:54.661Z,4.80
2019-04-11T06:59:26.108Z,5.10
2019-04-11T07:02:08.065Z,5.50
2019-04-11T07:04:34.040Z,5.90
2019-04-11T07:07:05.002Z,6.10
2019-04-11T07:09:39.449Z,6.50
2019-04-11T07:12:13.669Z,6.50
2019-04-11T07:14:47.603Z,6.70
2019-04-11T07:17:37.090Z,6.80
2019-04-11T07:20:25.025Z,7.00
2019-04-11T07:23:13.516Z,7.30
2019-04-11T07:26:02.448Z,7.40
2019-04-11T07:28:43.942Z,7.50
2019-04-11T07:31:30.385Z,7.80
2019-04-11T07:34:08.768Z,7.70
2019-04-11T07:36:57.921Z,7.60
2019-04-11T07:39:31.521Z,7.60
2019-04-11T07:42:18.219Z,8.10
2019-04-11T07:44:55.406Z,8.20
2019-04-11T07:47:43.861Z,8.20
2019-04-11T07:50:15.674Z,8.40
2019-04-11T07:52:52.160Z,8.70
2019-04-11T07:55:23.152Z,9.00
2019-04-11T07:57:54.659Z,9.00
2019-04-11T08:00:38.634Z,9.10
2019-04-11T08:03:06.255Z,9.20
2019-04-11T08:05:41.206Z,9.60
2019-04-11T08:08:21.522Z,9.90
2019-04-11T08:10:52.665Z,10.30
2019-04-11T08:13:23.670Z,10.40
2019-04-11T08:16:10.913Z,10.80
2019-04-11T08:18:45.347Z,11.00
2019-04-11T08:21:35.690Z,10.90
2019-04-11T08:24:10.012Z,10.90
2019-04-11T08:26:42.197Z,11.20
2019-04-11T08:29:15.553Z,11.00
2019-04-11T08:32:02.659Z,11.40
2019-04-11T08:34:33.790Z,11.40
2019-04-11T08:37:21.214Z,11.20
2019-04-11T08:39:51.373Z,11.40
2019-04-11T08:42:25.382Z,11.50
2019-04-11T08:44:54.885Z,11.60
2019-04-11T08:47:24.530Z,11.20
2019-04-11T08:49:54.148Z,11.50
2019-04-11T08:52:31.931Z,11.80
2019-04-11T08:55:04.137Z,12.40
2019-04-11T08:57:38.163Z,12.70
2019-04-11T09:00:10.295Z,12.10
2019-04-11T09:02:40.934Z,12.00
2019-04-11T09:05:20.327Z,11.90
2019-04-11T09:07:54.505Z,12.20
2019-04-11T09:10:42.372Z,11.70
2019-04-11T09:13:17.354Z,11.90
2019-04-11T09:16:05.532Z,12.00
2019-04-11T09:18:36.582Z,12.50
2019-04-11T09:21:07.854Z,12.50
2019-04-11T09:23:39.265Z,12.60
2019-04-11T09:26:27.635Z,12.50
2019-04-11T09:28:57.696Z,12.10
2019-04-11T09:31:45.666Z,12.30
2019-04-11T09:34:30.050Z,12.60
2019-04-11T09:37:01.272Z,12.70
2019-04-11T09:39:33.566Z,12.30
2019-04-11T09:42:11.578Z,12.20
2019-04-11T09:44:49.183Z,12.00
2019-04-11T09:47:38.375Z,11.60
2019-04-11T09:50:09.798Z,11.20
2019-04-11T09:52:40.997Z,10.90
2019-04-11T09:55:12.897Z,10.60
2019-04-11T09:57:44.153Z,10.80
2019-04-11T10:00:16.437Z,10.90
2019-04-11T10:02:54.610Z,10.40
2019-04-11T10:05:26.511Z,10.40
2019-04-11T10:08:14.837Z,10.40
2019-04-11T10:11:03.726Z,11.20
2019-04-11T10:13:53.292Z,10.60
2019-04-11T10:16:26.263Z,10.30
2019-04-11T10:19:03.436Z,10.20
2019-04-11T10:21:34.538Z,9.80
2019-04-11T10:24:20.629Z,9.40
2019-04-11T10:26:52.114Z,9.40
2019-04-11T10:29:39.827Z,9.60
2019-04-11T10:32:10.832Z,9.50
2019-04-11T10:34:57.637Z,9.10
2019-04-11T10:37:27.597Z,9.10
2019-04-11T10:40:10.636Z,9.40
2019-04-11T10:42:42.474Z,9.30
2019-04-11T10:45:16.305Z,9.20
2019-04-11T10:47:45.686Z,9.10
2019-04-11T10:50:34.042Z,9.30
2019-04-11T10:53:03.666Z,9.30
2019-04-11T10:55:51.732Z,9.50
2019-04-11T10:58:22.905Z,9.80
2019-04-11T11:00:57.658Z,9.80
2019-04-11T11:03:47.414Z,9.70
2019-04-11T11:06:27.648Z,10.20
2019-04-11T11:09:01.810Z,11.40
2019-04-11T11:11:37.341Z,11.60
2019-04-11T11:14:22.724Z,11.20
2019-04-11T11:16:56.842Z,11.10
2019-04-11T11:19:46.638Z,11.60
2019-04-11T11:22:02.454Z,11.80
2019-04-11T11:24:40.625Z,11.50
2019-04-11T11:27:10.395Z,11.60
2019-04-11T11:29:43.073Z,12.40
2019-04-11T11:32:14.265Z,12.70
2019-04-11T11:34:49.277Z,12.40
2019-04-11T11:37:33.361Z,12.20
2019-04-11T11:40:21.503Z,12.80
2019-04-11T11:43:08.880Z,13.50
2019-04-11T11:45:55.053Z,13.00
2019-04-11T11:48:27.986Z,13.30
2019-04-11T11:50:59.241Z,13.70
2019-04-11T11:53:42.831Z,13.70
2019-04-11T11:56:13.758Z,14.10
2019-04-11T11:58:51.877Z,14.40
2019-04-11T12:01:21.897Z,14.80
2019-04-11T12:04:08.732Z,14.20
2019-04-11T12:06:39.306Z,14.10
2019-04-11T12:09:25.253Z,14.60
2019-04-11T12:11:59.384Z,14.70
2019-04-11T12:14:37.237Z,14.20
2019-04-11T12:17:11.665Z,14.60
2019-04-11T12:19:52.298Z,15.40
2019-04-11T12:22:14.105Z,15.50
2019-04-11T12:24:56.853Z,14.30
2019-04-11T12:27:28.939Z,14.70
2019-04-11T12:30:03.046Z,15.80
2019-04-11T12:32:36.729Z,15.00
2019-04-11T12:35:17.929Z,15.30
2019-04-11T12:38:00.803Z,15.80
2019-04-11T12:40:48.224Z,15.80
2019-04-11T12:43:17.808Z,14.90
2019-04-11T12:45:51.805Z,14.10
2019-04-11T12:48:22.769Z,13.20
2019-04-11T12:51:00.444Z,12.80
2019-04-11T12:53:29.783Z,14.30
2019-04-11T12:56:09.746Z,13.90
2019-04-11T12:58:43.414Z,12.90
2019-04-11T13:01:27.245Z,12.50
2019-04-11T13:04:17.089Z,12.60
2019-04-11T13:07:00.230Z,13.80
2019-04-11T13:09:31.209Z,14.40
2019-04-11T13:12:02.162Z,15.10
2019-04-11T13:14:38.841Z,15.50
2019-04-11T13:17:12.686Z,14.10
2019-04-11T13:19:46.985Z,13.00
2019-04-11T13:22:17.937Z,13.30
2019-04-11T13:25:05.231Z,14.00
2019-04-11T13:27:36.179Z,15.20
2019-04-11T13:30:25.776Z,13.60
2019-04-11T13:32:56.554Z,12.60
2019-04-11T13:35:46.564Z,12.10
2019-04-11T13:38:20.432Z,12.10
2019-04-11T13:41:08.021Z,13.40
2019-04-11T13:43:38.979Z,13.40
2019-04-11T13:46:22.311Z,12.70
2019-04-11T13:48:53.260Z,13.50
2019-04-11T13:51:24.856Z,15.20
2019-04-11T13:54:12.269Z,15.60
2019-04-11T13:56:45.143Z,15.40
2019-04-11T13:59:15.874Z,13.70
2019-04-11T14:01:46.845Z,12.70
2019-04-11T14:04:20.553Z,12.10
2019-04-11T14:06:52.101Z,11.80
2019-04-11T14:09:32.009Z,13.20
2019-04-11T14:12:04.871Z,14.90
2019-04-11T14:14:32.932Z,15.40
2019-04-11T14:17:17.474Z,15.50
2019-04-11T14:19:49.757Z,16.20
2019-04-11T14:22:28.787Z,16.30
2019-04-11T14:24:57.457Z,16.30
2019-04-11T14:27:30.721Z,16.20
2019-04-11T14:30:13.736Z,17.60
2019-04-11T14:32:51.791Z,17.90
2019-04-11T14:35:39.834Z,15.40
2019-04-11T14:38:11.638Z,13.50
2019-04-11T14:41:01.242Z,12.40
2019-04-11T14:43:36.298Z,11.60
2019-04-11T14:46:13.450Z,10.50
2019-04-11T14:48:44.341Z,10.30
2019-04-11T14:51:16.681Z,11.30
2019-04-11T14:53:55.885Z,12.00
2019-04-11T14:56:27.243Z,12.30
2019-04-11T14:59:16.578Z,11.00
2019-04-11T15:01:56.505Z,10.30
2019-04-11T15:04:44.686Z,10.10
2019-04-11T15:07:15.703Z,9.80
2019-04-11T15:10:04.359Z,9.90
2019-04-11T15:12:35.305Z,10.30
2019-04-11T15:15:24.378Z,10.20
2019-04-11T15:17:55.900Z,9.70
2019-04-11T15:20:54.381Z,9.60
2019-04-11T15:23:19.258Z,9.50
2019-04-11T15:26:08.649Z,9.60
2019-04-11T15:28:43.970Z,9.30
2019-04-11T15:31:39.554Z,9.40
2019-04-11T15:34:09.841Z,10.50
2019-04-11T15:36:40.829Z,12.20
2019-04-11T15:39:28.342Z,12.90
2019-04-11T15:42:02.406Z,14.50
2019-04-11T15:44:34.249Z,14.20
2019-04-11T15:47:08.230Z,13.90
2019-04-11T15:49:47.842Z,13.40
2019-04-11T15:52:18.309Z,12.40
2019-04-11T15:54:58.224Z,10.90
2019-04-11T15:57:30.751Z,9.90
2019-04-11T16:00:16.973Z,9.30
2019-04-11T16:02:47.924Z,8.90
2019-04-11T16:05:36.646Z,8.70
2019-04-11T16:08:24.485Z,9.40
2019-04-11T16:10:58.121Z,9.30
2019-04-11T16:13:32.901Z,8.80
2019-04-11T16:16:07.029Z,8.60
2019-04-11T16:18:54.625Z,8.40
2019-04-11T16:21:28.565Z,8.10
2019-04-11T16:24:08.714Z,8.20
2019-04-11T16:26:56.121Z,8.10
2019-04-11T16:29:27.993Z,7.90
2019-04-11T16:31:58.934Z,7.90
2019-04-11T16:34:47.632Z,7.90
2019-04-11T16:37:06.890Z,8.00
2019-04-11T16:39:55.189Z,8.00
2019-04-11T16:42:27.533Z,7.80
2019-04-11T16:45:01.720Z,7.60
2019-04-11T16:47:41.660Z,7.60
2019-04-11T16:50:11.497Z,7.60
2019-04-11T16:52:40.819Z,7.60
2019-04-11T16:55:10.654Z,7.60
2019-04-11T16:57:44.019Z,7.40
2019-04-11T17:00:12.709Z,7.20
2019-04-11T17:02:42.101Z,7.10
2019-04-11T17:05:11.647Z,7.00
2019-04-11T17:08:00.804Z,7.10
2019-04-11T17:10:48.069Z,7.00
2019-04-11T17:13:17.549Z,7.00
2019-04-11T17:15:46.854Z,6.80
2019-04-11T17:18:18.968Z,6.70
2019-04-11T17:20:48.271Z,6.60
2019-04-11T17:23:17.849Z,6.70
2019-04-11T17:25:52.459Z,6.60
2019-04-11T17:28:18.230Z,6.70
2019-04-11T17:30:47.701Z,6.60
2019-04-11T17:33:17.166Z,6.60
2019-04-11T17:35:46.575Z,6.60
2019-04-11T17:38:16.809Z,6.60
2019-04-11T17:40:46.115Z,6.50
2019-04-11T17:43:15.405Z,6.40
2019-04-11T17:45:44.724Z,6.40
2019-04-11T17:48:14.021Z,6.40
2019-04-11T17:50:43.387Z,6.40
2019-04-11T17:53:12.751Z,6.30
2019-04-11T17:55:42.128Z,6.20
2019-04-11T17:58:11.430Z,6.20
2019-04-11T18:00:45.313Z,6.10
2019-04-11T18:03:15.797Z,6.10
2019-04-11T18:05:47.030Z,6.00
2019-04-11T18:08:19.781Z,6.00
2019-04-11T18:10:48.105Z,6.00
2019-04-11T18:13:17.405Z,6.00
2019-04-11T18:15:46.776Z,6.00
2019-04-11T18:18:16.079Z,6.00
2019-04-11T18:20:45.433Z,6.00
2019-04-11T18:23:14.815Z,5.90
2019-04-11T18:25:44.120Z,5.90
2019-04-11T18:28:13.417Z,6.00
2019-04-11T18:30:43.929Z,5.90
2019-04-11T18:33:13.775Z,5.90
2019-04-11T18:35:43.069Z,5.90
2019-04-11T18:38:12.379Z,5.90
2019-04-11T18:40:41.684Z,5.90
2019-04-11T18:43:10.973Z,5.90
2019-04-11T18:45:40.295Z,5.80
2019-04-11T18:48:09.590Z,5.90
2019-04-11T18:50:38.911Z,5.80
2019-04-11T18:53:08.281Z,5.80
2019-04-11T18:55:37.579Z,5.70
2019-04-11T18:58:06.908Z,5.80
2019-04-11T19:00:38.380Z,5.80
2019-04-11T19:03:08.121Z,5.70
2019-04-11T19:05:38.410Z,5.60
2019-04-11T19:08:07.709Z,5.70
2019-04-11T19:10:37.138Z,5.70
2019-04-11T19:13:06.488Z,5.60
2019-04-11T19:15:35.797Z,5.70
2019-04-11T19:18:06.914Z,5.70
2019-04-11T19:20:36.453Z,5.70
2019-04-11T19:23:07.912Z,5.60
2019-04-11T19:25:36.881Z,5.50
2019-04-11T19:28:06.190Z,5.50
2019-04-11T19:30:35.549Z,5.50
2019-04-11T19:33:05.041Z,5.40
2019-04-11T19:35:34.454Z,5.50
2019-04-11T19:38:04.257Z,5.40
2019-04-11T19:40:33.545Z,5.40
2019-04-11T19:43:02.850Z,5.40
2019-04-11T19:45:33.221Z,5.40
2019-04-11T19:48:02.525Z,5.40
2019-04-11T19:50:31.833Z,5.40
2019-04-11T19:53:02.997Z,5.30
2019-04-11T19:55:36.173Z,5.30
2019-04-11T19:58:05.469Z,5.30
2019-04-11T20:00:35.738Z,5.20
2019-04-11T20:03:05.047Z,5.30
2019-04-11T20:05:34.386Z,5.30
2019-04-11T20:08:03.916Z,5.30
2019-04-11T20:10:33.213Z,5.20
2019-04-11T20:13:04.047Z,5.10
2019-04-11T20:15:37.292Z,5.20
2019-04-11T20:18:04.359Z,5.10
2019-04-11T20:20:36.849Z,5.10
2019-04-11T20:23:04.828Z,5.10
2019-04-11T20:25:34.274Z,5.10
2019-04-11T20:28:03.594Z,5.10
2019-04-11T20:30:32.883Z,5.10
2019-04-11T20:33:03.204Z,5.20
2019-04-11T20:35:33.113Z,5.10
2019-04-11T20:38:02.404Z,5.10
2019-04-11T20:40:31.798Z,5.00
2019-04-11T20:43:01.093Z,5.00
2019-04-11T20:45:32.033Z,4.90
2019-04-11T20:48:02.255Z,5.00
2019-04-11T20:50:31.566Z,4.90
2019-04-11T20:53:12.072Z,4.90
2019-04-11T20:55:31.878Z,4.90
2019-04-11T20:58:01.179Z,4.90
2019-04-11T21:00:31.550Z,5.00
2019-04-11T21:03:00.865Z,4.90
2019-04-11T21:05:30.964Z,4.90
2019-04-11T21:08:02.974Z,4.80
2019-04-11T21:10:33.932Z,4.80
2019-04-11T21:13:06.922Z,4.90
2019-04-11T21:15:36.186Z,4.80
2019-04-11T21:18:05.486Z,4.80
2019-04-11T21:20:47.468Z,4.70
2019-04-11T21:23:24.305Z,4.80
2019-04-11T21:25:48.469Z,4.80
2019-04-11T21:28:17.773Z,4.80
2019-04-11T21:30:47.086Z,4.80
2019-04-11T21:33:16.446Z,4.70
2019-04-11T21:35:45.745Z,4.80
2019-04-11T21:38:15.066Z,4.80
2019-04-11T21:40:44.365Z,4.80
2019-04-11T21:43:13.670Z,4.70
2019-04-11T21:45:42.967Z,4.70
2019-04-11T21:48:12.266Z,4.70
2019-04-11T21:50:41.581Z,4.60
2019-04-11T21:53:22.697Z,4.60
2019-04-11T21:55:52.013Z,4.60
2019-04-11T21:58:21.313Z,4.60
2019-04-11T22:00:55.047Z,4.60
2019-04-11T22:03:24.840Z,4.60
2019-04-11T22:05:54.212Z,4.60
2019-04-11T22:08:23.514Z,4.60
2019-04-11T22:10:52.882Z,4.70
2019-04-11T22:13:22.185Z,4.70
2019-04-11T22:15:52.474Z,4.60
2019-04-11T22:18:23.405Z,4.70
2019-04-11T22:20:52.705Z,4.60
2019-04-11T22:23:22.009Z,4.60
2019-04-11T22:25:51.317Z,4.50
2019-04-11T22:28:22.042Z,4.50
2019-04-11T22:30:54.855Z,4.50
2019-04-11T22:33:27.578Z,4.50
2019-04-11T22:35:59.322Z,4.40
2019-04-11T22:38:31.058Z,4.40
2019-04-11T22:41:02.033Z,4.40
2019-04-11T22:43:31.314Z,4.50
2019-04-11T22:46:00.621Z,4.50
2019-04-11T22:48:29.925Z,4.50
2019-04-11T22:50:59.224Z,4.50
2019-04-11T22:53:28.653Z,4.40
2019-04-11T22:55:57.958Z,4.40
2019-04-11T22:58:27.261Z,4.40
2019-04-11T23:00:56.557Z,4.40
2019-04-11T23:03:27.517Z,4.40
2019-04-11T23:05:56.817Z,4.40
2019-04-11T23:08:26.116Z,4.40
2019-04-11T23:10:55.417Z,4.40
2019-04-11T23:13:24.928Z,4.40
2019-04-11T23:15:54.644Z,4.40
2019-04-11T23:18:23.937Z,4.40
2019-04-11T23:20:53.257Z,4.40
2019-04-11T23:23:22.582Z,4.40
2019-04-11T23:25:51.955Z,4.40
2019-04-11T23:28:22.430Z,4.40
2019-04-11T23:30:51.734Z,4.30
2019-04-11T23:33:21.532Z,4.40
2019-04-11T23:35:51.763Z,4.40
2019-04-11T23:38:23.564Z,4.40
2019-04-11T23:40:52.209Z,4.30
2019-04-11T23:43:21.514Z,4.30
2019-04-11T23:45:51.813Z,4.30
2019-04-11T23:48:23.761Z,4.30
2019-04-11T23:50:54.781Z,4.30
2019-04-11T23:53:23.269Z,4.30
2019-04-11T23:55:52.570Z,4.30
2019-04-11T23:58:21.869Z,4.20
